sensor_id;sensor_type;location;lat;lon;timestamp;P1;durP1;ratioP1;P2;durP2;ratioP2
23260;SDS011;11799;47.740;-3.390;2024-02-16T00:00:16;20.98;;;2.90;;
23260;SDS011;11799;47.740;-3.390;2024-02-16T00:02:43;15.85;;;3.00;;
23260;SDS011;11799;47.740;-3.390;2024-02-16T00:05:09;19.33;;;2.50;;
23260;SDS011;11799;47.740;-3.390;2024-02-16T00:07:38;5.05;;;1.95;;
23260;SDS011;11799;47.740;-3.390;2024-02-16T00:10:05;6.53;;;2.60;;
23260;SDS011;11799;47.740;-3.390;2024-02-16T00:12:32;3.05;;;2.25;;
23260;SDS011;11799;47.740;-3.390;2024-02-16T00:14:58;3.38;;;2.03;;
23260;SDS011;11799;47.740;-3.390;2024-02-16T00:17:25;6.03;;;2.03;;
23260;SDS011;11799;47.740;-3.390;2024-02-16T00:19:56;4.53;;;2.08;;
23260;SDS011;11799;47.740;-3.390;2024-02-16T00:22:22;4.47;;;1.92;;
23260;SDS011;11799;47.740;-3.390;2024-02-16T00:24:47;3.38;;;1.33;;
23260;SDS011;11799;47.740;-3.390;2024-02-16T00:27:13;6.72;;;1.50;;
23260;SDS011;11799;47.740;-3.390;2024-02-16T00:29:40;6.65;;;1.23;;
23260;SDS011;11799;47.740;-3.390;2024-02-16T00:32:06;2.45;;;1.20;;
23260;SDS011;11799;47.740;-3.390;2024-02-16T00:34:33;4.28;;;0.85;;
23260;SDS011;11799;47.740;-3.390;2024-02-16T00:36:59;1.27;;;0.80;;
23260;SDS011;11799;47.740;-3.390;2024-02-16T00:39:25;1.10;;;1.00;;
23260;SDS011;11799;47.740;-3.390;2024-02-16T00:41:51;1.17;;;0.73;;
23260;SDS011;11799;47.740;-3.390;2024-02-16T00:44:16;1.00;;;0.80;;
23260;SDS011;11799;47.740;-3.390;2024-02-16T00:46:43;0.77;;;0.77;;
23260;SDS011;11799;47.740;-3.390;2024-02-16T00:49:09;1.30;;;1.08;;
23260;SDS011;11799;47.740;-3.390;2024-02-16T00:51:36;1.27;;;1.08;;
23260;SDS011;11799;47.740;-3.390;2024-02-16T00:54:04;0.70;;;0.70;;
23260;SDS011;11799;47.740;-3.390;2024-02-16T00:56:33;0.77;;;0.77;;
23260;SDS011;11799;47.740;-3.390;2024-02-16T00:58:58;1.58;;;0.82;;
23260;SDS011;11799;47.740;-3.390;2024-02-16T01:01:24;0.68;;;0.68;;
23260;SDS011;11799;47.740;-3.390;2024-02-16T01:03:54;0.52;;;0.40;;
23260;SDS011;11799;47.740;-3.390;2024-02-16T01:06:20;0.60;;;0.60;;
23260;SDS011;11799;47.740;-3.390;2024-02-16T01:08:46;0.60;;;0.60;;
23260;SDS011;11799;47.740;-3.390;2024-02-16T01:11:12;0.70;;;0.70;;
23260;SDS011;11799;47.740;-3.390;2024-02-16T01:13:38;0.63;;;0.63;;
23260;SDS011;11799;47.740;-3.390;2024-02-16T01:16:04;0.50;;;0.50;;
23260;SDS011;11799;47.740;-3.390;2024-02-16T01:18:30;0.60;;;0.60;;
23260;SDS011;11799;47.740;-3.390;2024-02-16T01:20:58;0.40;;;0.40;;
23260;SDS011;11799;47.740;-3.390;2024-02-16T01:23:23;0.90;;;0.75;;
23260;SDS011;11799;47.740;-3.390;2024-02-16T01:25:49;0.80;;;0.50;;
23260;SDS011;11799;47.740;-3.390;2024-02-16T01:28:15;0.47;;;0.47;;
23260;SDS011;11799;47.740;-3.390;2024-02-16T01:30:41;1.08;;;0.70;;
23260;SDS011;11799;47.740;-3.390;2024-02-16T01:33:07;0.45;;;0.45;;
23260;SDS011;11799;47.740;-3.390;2024-02-16T01:35:33;1.83;;;0.70;;
23260;SDS011;11799;47.740;-3.390;2024-02-16T01:37:59;0.40;;;0.40;;
23260;SDS011;11799;47.740;-3.390;2024-02-16T01:40:26;0.50;;;0.50;;
23260;SDS011;11799;47.740;-3.390;2024-02-16T01:42:52;0.60;;;0.60;;
23260;SDS011;11799;47.740;-3.390;2024-02-16T01:45:20;2.15;;;0.98;;
23260;SDS011;11799;47.740;-3.390;2024-02-16T01:47:50;0.60;;;0.60;;
23260;SDS011;11799;47.740;-3.390;2024-02-16T01:50:17;1.08;;;0.70;;
23260;SDS011;11799;47.740;-3.390;2024-02-16T01:52:44;0.55;;;0.55;;
23260;SDS011;11799;47.740;-3.390;2024-02-16T01:55:11;4.22;;;0.80;;
23260;SDS011;11799;47.740;-3.390;2024-02-16T01:57:47;0.60;;;0.60;;
23260;SDS011;11799;47.740;-3.390;2024-02-16T02:00:13;1.48;;;0.80;;
23260;SDS011;11799;47.740;-3.390;2024-02-16T02:02:43;1.08;;;0.50;;
23260;SDS011;11799;47.740;-3.390;2024-02-16T02:05:10;0.65;;;0.60;;
23260;SDS011;11799;47.740;-3.390;2024-02-16T02:07:36;1.55;;;0.60;;
23260;SDS011;11799;47.740;-3.390;2024-02-16T02:10:02;0.73;;;0.70;;
23260;SDS011;11799;47.740;-3.390;2024-02-16T02:12:28;0.70;;;0.70;;
23260;SDS011;11799;47.740;-3.390;2024-02-16T02:14:54;0.98;;;0.85;;
23260;SDS011;11799;47.740;-3.390;2024-02-16T02:17:19;0.60;;;0.60;;
23260;SDS011;11799;47.740;-3.390;2024-02-16T02:19:45;0.80;;;0.80;;
23260;SDS011;11799;47.740;-3.390;2024-02-16T02:22:20;1.88;;;0.80;;
23260;SDS011;11799;47.740;-3.390;2024-02-16T02:24:46;0.50;;;0.50;;
23260;SDS011;11799;47.740;-3.390;2024-02-16T02:27:13;0.50;;;0.40;;
23260;SDS011;11799;47.740;-3.390;2024-02-16T02:29:40;1.88;;;0.65;;
23260;SDS011;11799;47.740;-3.390;2024-02-16T02:32:06;0.70;;;0.70;;
23260;SDS011;11799;47.740;-3.390;2024-02-16T02:34:32;0.65;;;0.65;;
23260;SDS011;11799;47.740;-3.390;2024-02-16T02:36:57;0.70;;;0.60;;
23260;SDS011;11799;47.740;-3.390;2024-02-16T02:39:23;0.68;;;0.65;;
23260;SDS011;11799;47.740;-3.390;2024-02-16T02:41:48;0.60;;;0.60;;
23260;SDS011;11799;47.740;-3.390;2024-02-16T02:44:14;0.60;;;0.60;;
23260;SDS011;11799;47.740;-3.390;2024-02-16T02:46:40;0.70;;;0.70;;
23260;SDS011;11799;47.740;-3.390;2024-02-16T02:49:05;0.63;;;0.63;;
23260;SDS011;11799;47.740;-3.390;2024-02-16T02:51:31;0.85;;;0.82;;
23260;SDS011;11799;47.740;-3.390;2024-02-16T02:53:56;0.50;;;0.50;;
23260;SDS011;11799;47.740;-3.390;2024-02-16T02:56:22;1.48;;;0.75;;
23260;SDS011;11799;47.740;-3.390;2024-02-16T02:58:47;2.20;;;0.73;;
23260;SDS011;11799;47.740;-3.390;2024-02-16T03:01:13;0.57;;;0.57;;
23260;SDS011;11799;47.740;-3.390;2024-02-16T03:03:39;0.75;;;0.55;;
23260;SDS011;11799;47.740;-3.390;2024-02-16T03:06:06;0.60;;;0.60;;
23260;SDS011;11799;47.740;-3.390;2024-02-16T03:08:32;0.80;;;0.80;;
23260;SDS011;11799;47.740;-3.390;2024-02-16T03:10:58;0.60;;;0.60;;
23260;SDS011;11799;47.740;-3.390;2024-02-16T03:13:26;2.70;;;0.50;;
23260;SDS011;11799;47.740;-3.390;2024-02-16T03:15:51;1.85;;;0.73;;
23260;SDS011;11799;47.740;-3.390;2024-02-16T03:18:18;5.70;;;0.65;;
23260;SDS011;11799;47.740;-3.390;2024-02-16T03:20:44;2.00;;;1.02;;
23260;SDS011;11799;47.740;-3.390;2024-02-16T03:23:15;4.10;;;0.60;;
23260;SDS011;11799;47.740;-3.390;2024-02-16T03:25:41;4.85;;;0.70;;
23260;SDS011;11799;47.740;-3.390;2024-02-16T03:28:11;3.70;;;1.02;;
23260;SDS011;11799;47.740;-3.390;2024-02-16T03:30:37;3.97;;;0.68;;
23260;SDS011;11799;47.740;-3.390;2024-02-16T03:33:03;2.20;;;1.10;;
23260;SDS011;11799;47.740;-3.390;2024-02-16T03:35:29;0.50;;;0.50;;
23260;SDS011;11799;47.740;-3.390;2024-02-16T03:37:54;0.80;;;0.80;;
23260;SDS011;11799;47.740;-3.390;2024-02-16T03:40:21;1.92;;;0.80;;
23260;SDS011;11799;47.740;-3.390;2024-02-16T03:42:47;0.80;;;0.80;;
23260;SDS011;11799;47.740;-3.390;2024-02-16T03:45:13;4.13;;;1.00;;
23260;SDS011;11799;47.740;-3.390;2024-02-16T03:47:42;1.85;;;0.88;;
23260;SDS011;11799;47.740;-3.390;2024-02-16T03:50:07;0.93;;;0.85;;
23260;SDS011;11799;47.740;-3.390;2024-02-16T03:52:33;1.23;;;0.70;;
23260;SDS011;11799;47.740;-3.390;2024-02-16T03:54:59;2.92;;;0.93;;
23260;SDS011;11799;47.740;-3.390;2024-02-16T03:57:25;0.80;;;0.80;;
23260;SDS011;11799;47.740;-3.390;2024-02-16T03:59:51;0.85;;;0.70;;
23260;SDS011;11799;47.740;-3.390;2024-02-16T04:02:17;4.40;;;0.80;;
23260;SDS011;11799;47.740;-3.390;2024-02-16T04:04:42;3.35;;;0.60;;
23260;SDS011;11799;47.740;-3.390;2024-02-16T04:07:08;0.63;;;0.63;;
23260;SDS011;11799;47.740;-3.390;2024-02-16T04:09:34;8.70;;;1.50;;
23260;SDS011;11799;47.740;-3.390;2024-02-16T04:12:00;4.28;;;0.57;;
23260;SDS011;11799;47.740;-3.390;2024-02-16T04:14:27;7.97;;;1.10;;
23260;SDS011;11799;47.740;-3.390;2024-02-16T04:16:52;7.55;;;1.27;;
23260;SDS011;11799;47.740;-3.390;2024-02-16T04:19:18;4.97;;;0.90;;
23260;SDS011;11799;47.740;-3.390;2024-02-16T04:21:44;6.13;;;1.30;;
23260;SDS011;11799;47.740;-3.390;2024-02-16T04:24:10;3.30;;;0.93;;
23260;SDS011;11799;47.740;-3.390;2024-02-16T04:26:35;4.43;;;1.10;;
23260;SDS011;11799;47.740;-3.390;2024-02-16T04:29:02;2.35;;;0.82;;
23260;SDS011;11799;47.740;-3.390;2024-02-16T04:31:29;17.67;;;1.13;;
23260;SDS011;11799;47.740;-3.390;2024-02-16T04:33:55;5.95;;;0.80;;
23260;SDS011;11799;47.740;-3.390;2024-02-16T04:36:20;2.08;;;1.30;;
23260;SDS011;11799;47.740;-3.390;2024-02-16T04:38:46;4.60;;;0.90;;
23260;SDS011;11799;47.740;-3.390;2024-02-16T04:41:12;7.88;;;0.85;;
23260;SDS011;11799;47.740;-3.390;2024-02-16T04:43:38;5.63;;;1.00;;
23260;SDS011;11799;47.740;-3.390;2024-02-16T04:46:04;11.35;;;0.85;;
23260;SDS011;11799;47.740;-3.390;2024-02-16T04:48:30;0.95;;;0.90;;
23260;SDS011;11799;47.740;-3.390;2024-02-16T04:50:57;7.30;;;0.73;;
23260;SDS011;11799;47.740;-3.390;2024-02-16T04:53:22;2.80;;;0.80;;
23260;SDS011;11799;47.740;-3.390;2024-02-16T04:55:48;0.68;;;0.68;;
23260;SDS011;11799;47.740;-3.390;2024-02-16T04:58:14;1.33;;;0.70;;
23260;SDS011;11799;47.740;-3.390;2024-02-16T05:00:39;4.57;;;1.67;;
23260;SDS011;11799;47.740;-3.390;2024-02-16T05:03:05;1.27;;;0.80;;
23260;SDS011;11799;47.740;-3.390;2024-02-16T05:05:30;2.35;;;0.77;;
23260;SDS011;11799;47.740;-3.390;2024-02-16T05:07:56;4.65;;;1.23;;
23260;SDS011;11799;47.740;-3.390;2024-02-16T05:10:22;4.10;;;0.60;;
23260;SDS011;11799;47.740;-3.390;2024-02-16T05:12:48;5.60;;;1.02;;
23260;SDS011;11799;47.740;-3.390;2024-02-16T05:15:13;10.15;;;0.98;;
23260;SDS011;11799;47.740;-3.390;2024-02-16T05:17:40;6.93;;;0.90;;
23260;SDS011;11799;47.740;-3.390;2024-02-16T05:20:11;0.70;;;0.68;;
23260;SDS011;11799;47.740;-3.390;2024-02-16T05:22:46;5.53;;;0.82;;
23260;SDS011;11799;47.740;-3.390;2024-02-16T05:25:14;0.85;;;0.82;;
23260;SDS011;11799;47.740;-3.390;2024-02-16T05:27:43;1.05;;;0.60;;
23260;SDS011;11799;47.740;-3.390;2024-02-16T05:30:10;7.88;;;0.70;;
23260;SDS011;11799;47.740;-3.390;2024-02-16T05:32:38;0.85;;;0.60;;
23260;SDS011;11799;47.740;-3.390;2024-02-16T05:35:04;5.25;;;1.08;;
23260;SDS011;11799;47.740;-3.390;2024-02-16T05:37:48;9.23;;;1.25;;
23260;SDS011;11799;47.740;-3.390;2024-02-16T05:40:16;3.05;;;0.98;;
23260;SDS011;11799;47.740;-3.390;2024-02-16T05:42:54;5.15;;;0.93;;
23260;SDS011;11799;47.740;-3.390;2024-02-16T05:45:23;4.50;;;0.50;;
23260;SDS011;11799;47.740;-3.390;2024-02-16T05:47:49;5.57;;;0.60;;
23260;SDS011;11799;47.740;-3.390;2024-02-16T05:50:15;6.03;;;0.65;;
23260;SDS011;11799;47.740;-3.390;2024-02-16T05:52:42;6.57;;;0.88;;
23260;SDS011;11799;47.740;-3.390;2024-02-16T05:55:09;5.43;;;1.02;;
23260;SDS011;11799;47.740;-3.390;2024-02-16T05:57:35;1.02;;;0.70;;
23260;SDS011;11799;47.740;-3.390;2024-02-16T06:00:04;0.93;;;0.65;;
23260;SDS011;11799;47.740;-3.390;2024-02-16T06:04:57;1.73;;;0.57;;
23260;SDS011;11799;47.740;-3.390;2024-02-16T06:07:23;4.60;;;0.90;;
23260;SDS011;11799;47.740;-3.390;2024-02-16T06:09:48;15.82;;;1.13;;
23260;SDS011;11799;47.740;-3.390;2024-02-16T06:12:14;9.10;;;0.90;;
23260;SDS011;11799;47.740;-3.390;2024-02-16T06:14:41;15.00;;;0.90;;
23260;SDS011;11799;47.740;-3.390;2024-02-16T06:17:07;5.65;;;0.90;;
23260;SDS011;11799;47.740;-3.390;2024-02-16T06:19:34;2.40;;;1.13;;
23260;SDS011;11799;47.740;-3.390;2024-02-16T06:22:02;7.20;;;1.17;;
23260;SDS011;11799;47.740;-3.390;2024-02-16T06:24:28;10.38;;;0.82;;
23260;SDS011;11799;47.740;-3.390;2024-02-16T06:26:54;4.13;;;1.15;;
23260;SDS011;11799;47.740;-3.390;2024-02-16T06:29:19;8.77;;;1.35;;
23260;SDS011;11799;47.740;-3.390;2024-02-16T06:31:45;3.72;;;0.63;;
23260;SDS011;11799;47.740;-3.390;2024-02-16T06:34:13;1.35;;;0.70;;
23260;SDS011;11799;47.740;-3.390;2024-02-16T06:36:39;6.32;;;1.00;;
23260;SDS011;11799;47.740;-3.390;2024-02-16T06:39:04;5.20;;;1.10;;
23260;SDS011;11799;47.740;-3.390;2024-02-16T06:41:30;1.63;;;0.90;;
23260;SDS011;11799;47.740;-3.390;2024-02-16T06:43:56;6.78;;;1.00;;
23260;SDS011;11799;47.740;-3.390;2024-02-16T06:46:21;3.97;;;1.05;;
23260;SDS011;11799;47.740;-3.390;2024-02-16T06:48:47;5.03;;;1.02;;
23260;SDS011;11799;47.740;-3.390;2024-02-16T06:51:13;8.77;;;0.75;;
23260;SDS011;11799;47.740;-3.390;2024-02-16T06:53:39;5.47;;;0.90;;
23260;SDS011;11799;47.740;-3.390;2024-02-16T06:56:04;0.80;;;0.75;;
23260;SDS011;11799;47.740;-3.390;2024-02-16T06:58:30;0.82;;;0.63;;
23260;SDS011;11799;47.740;-3.390;2024-02-16T07:00:55;4.65;;;0.95;;
23260;SDS011;11799;47.740;-3.390;2024-02-16T07:03:22;0.93;;;0.80;;
23260;SDS011;11799;47.740;-3.390;2024-02-16T07:05:49;1.10;;;0.85;;
23260;SDS011;11799;47.740;-3.390;2024-02-16T07:08:14;11.50;;;1.00;;
23260;SDS011;11799;47.740;-3.390;2024-02-16T07:10:40;6.38;;;1.25;;
23260;SDS011;11799;47.740;-3.390;2024-02-16T07:13:06;3.08;;;0.93;;
23260;SDS011;11799;47.740;-3.390;2024-02-16T07:15:31;12.40;;;1.25;;
23260;SDS011;11799;47.740;-3.390;2024-02-16T07:17:57;5.60;;;1.33;;
23260;SDS011;11799;47.740;-3.390;2024-02-16T07:20:22;3.70;;;0.80;;
23260;SDS011;11799;47.740;-3.390;2024-02-16T07:22:48;6.65;;;1.17;;
23260;SDS011;11799;47.740;-3.390;2024-02-16T07:25:16;5.75;;;1.65;;
23260;SDS011;11799;47.740;-3.390;2024-02-16T07:27:42;2.97;;;0.68;;
23260;SDS011;11799;47.740;-3.390;2024-02-16T07:30:08;3.35;;;1.42;;
23260;SDS011;11799;47.740;-3.390;2024-02-16T07:32:36;18.05;;;1.75;;
23260;SDS011;11799;47.740;-3.390;2024-02-16T07:35:01;9.40;;;1.38;;
23260;SDS011;11799;47.740;-3.390;2024-02-16T07:37:28;5.90;;;2.10;;
23260;SDS011;11799;47.740;-3.390;2024-02-16T07:39:54;13.13;;;2.30;;
23260;SDS011;11799;47.740;-3.390;2024-02-16T07:42:19;3.75;;;0.90;;
23260;SDS011;11799;47.740;-3.390;2024-02-16T07:44:45;8.65;;;1.08;;
23260;SDS011;11799;47.740;-3.390;2024-02-16T07:47:11;9.00;;;1.17;;
23260;SDS011;11799;47.740;-3.390;2024-02-16T07:49:38;9.05;;;1.50;;
23260;SDS011;11799;47.740;-3.390;2024-02-16T07:52:05;12.73;;;2.00;;
23260;SDS011;11799;47.740;-3.390;2024-02-16T07:54:30;3.40;;;0.90;;
23260;SDS011;11799;47.740;-3.390;2024-02-16T07:56:56;8.20;;;1.27;;
23260;SDS011;11799;47.740;-3.390;2024-02-16T07:59:24;1.08;;;0.98;;
23260;SDS011;11799;47.740;-3.390;2024-02-16T08:01:50;13.80;;;1.75;;
23260;SDS011;11799;47.740;-3.390;2024-02-16T08:04:16;12.77;;;1.15;;
23260;SDS011;11799;47.740;-3.390;2024-02-16T08:06:41;17.67;;;1.40;;
23260;SDS011;11799;47.740;-3.390;2024-02-16T08:09:07;12.70;;;1.23;;
23260;SDS011;11799;47.740;-3.390;2024-02-16T08:11:32;11.73;;;1.90;;
23260;SDS011;11799;47.740;-3.390;2024-02-16T08:13:58;3.13;;;1.45;;
23260;SDS011;11799;47.740;-3.390;2024-02-16T08:16:28;10.52;;;1.15;;
23260;SDS011;11799;47.740;-3.390;2024-02-16T08:18:54;6.22;;;1.13;;
23260;SDS011;11799;47.740;-3.390;2024-02-16T08:21:19;9.38;;;1.02;;
23260;SDS011;11799;47.740;-3.390;2024-02-16T08:23:46;2.10;;;1.30;;
23260;SDS011;11799;47.740;-3.390;2024-02-16T08:26:12;9.48;;;1.00;;
23260;SDS011;11799;47.740;-3.390;2024-02-16T08:28:38;5.20;;;0.75;;
23260;SDS011;11799;47.740;-3.390;2024-02-16T08:31:04;7.57;;;1.27;;
23260;SDS011;11799;47.740;-3.390;2024-02-16T08:33:31;7.95;;;1.23;;
23260;SDS011;11799;47.740;-3.390;2024-02-16T08:35:57;2.05;;;1.00;;
23260;SDS011;11799;47.740;-3.390;2024-02-16T08:38:23;4.53;;;1.23;;
23260;SDS011;11799;47.740;-3.390;2024-02-16T08:40:48;14.75;;;2.42;;
23260;SDS011;11799;47.740;-3.390;2024-02-16T08:43:17;8.60;;;2.03;;
23260;SDS011;11799;47.740;-3.390;2024-02-16T08:45:42;10.65;;;1.40;;
23260;SDS011;11799;47.740;-3.390;2024-02-16T08:48:08;5.97;;;0.80;;
23260;SDS011;11799;47.740;-3.390;2024-02-16T08:50:34;5.90;;;1.60;;
23260;SDS011;11799;47.740;-3.390;2024-02-16T08:53:00;1.35;;;0.80;;
23260;SDS011;11799;47.740;-3.390;2024-02-16T08:55:25;8.35;;;1.35;;
23260;SDS011;11799;47.740;-3.390;2024-02-16T08:57:51;11.10;;;1.83;;
23260;SDS011;11799;47.740;-3.390;2024-02-16T09:00:17;13.50;;;1.77;;
23260;SDS011;11799;47.740;-3.390;2024-02-16T09:02:43;10.95;;;1.25;;
23260;SDS011;11799;47.740;-3.390;2024-02-16T09:05:10;13.07;;;1.40;;
23260;SDS011;11799;47.740;-3.390;2024-02-16T09:07:35;19.85;;;1.80;;
23260;SDS011;11799;47.740;-3.390;2024-02-16T09:10:01;11.02;;;1.23;;
23260;SDS011;11799;47.740;-3.390;2024-02-16T09:12:27;7.70;;;1.45;;
23260;SDS011;11799;47.740;-3.390;2024-02-16T09:14:52;3.55;;;1.10;;
23260;SDS011;11799;47.740;-3.390;2024-02-16T09:17:18;8.70;;;1.35;;
23260;SDS011;11799;47.740;-3.390;2024-02-16T09:19:45;9.80;;;1.15;;
23260;SDS011;11799;47.740;-3.390;2024-02-16T09:22:11;6.50;;;1.20;;
23260;SDS011;11799;47.740;-3.390;2024-02-16T09:24:36;15.18;;;1.20;;
23260;SDS011;11799;47.740;-3.390;2024-02-16T09:27:02;7.63;;;1.10;;
23260;SDS011;11799;47.740;-3.390;2024-02-16T09:29:30;11.10;;;1.35;;
23260;SDS011;11799;47.740;-3.390;2024-02-16T09:31:56;17.95;;;1.38;;
23260;SDS011;11799;47.740;-3.390;2024-02-16T09:34:21;10.57;;;1.63;;
23260;SDS011;11799;47.740;-3.390;2024-02-16T09:36:47;3.95;;;0.93;;
23260;SDS011;11799;47.740;-3.390;2024-02-16T09:39:12;7.63;;;1.42;;
23260;SDS011;11799;47.740;-3.390;2024-02-16T09:41:39;3.05;;;1.08;;
23260;SDS011;11799;47.740;-3.390;2024-02-16T09:44:07;8.15;;;1.42;;
23260;SDS011;11799;47.740;-3.390;2024-02-16T09:46:33;5.05;;;1.25;;
23260;SDS011;11799;47.740;-3.390;2024-02-16T09:49:02;10.68;;;1.77;;
23260;SDS011;11799;47.740;-3.390;2024-02-16T09:51:28;17.05;;;1.70;;
23260;SDS011;11799;47.740;-3.390;2024-02-16T09:53:54;11.43;;;1.02;;
23260;SDS011;11799;47.740;-3.390;2024-02-16T09:56:20;10.95;;;1.45;;
23260;SDS011;11799;47.740;-3.390;2024-02-16T09:58:46;10.35;;;1.10;;
23260;SDS011;11799;47.740;-3.390;2024-02-16T10:01:19;7.90;;;1.30;;
23260;SDS011;11799;47.740;-3.390;2024-02-16T10:03:48;8.63;;;1.40;;
23260;SDS011;11799;47.740;-3.390;2024-02-16T10:06:14;2.83;;;1.20;;
23260;SDS011;11799;47.740;-3.390;2024-02-16T10:08:47;2.53;;;1.38;;
23260;SDS011;11799;47.740;-3.390;2024-02-16T10:11:17;9.10;;;1.13;;
23260;SDS011;11799;47.740;-3.390;2024-02-16T10:13:54;11.70;;;1.80;;
23260;SDS011;11799;47.740;-3.390;2024-02-16T10:16:20;11.32;;;1.23;;
23260;SDS011;11799;47.740;-3.390;2024-02-16T10:18:46;12.75;;;1.25;;
23260;SDS011;11799;47.740;-3.390;2024-02-16T10:21:11;9.88;;;1.67;;
23260;SDS011;11799;47.740;-3.390;2024-02-16T10:23:37;1.20;;;1.10;;
23260;SDS011;11799;47.740;-3.390;2024-02-16T10:26:02;5.43;;;1.05;;
23260;SDS011;11799;47.740;-3.390;2024-02-16T10:28:29;5.10;;;1.00;;
23260;SDS011;11799;47.740;-3.390;2024-02-16T10:30:59;16.77;;;1.55;;
23260;SDS011;11799;47.740;-3.390;2024-02-16T10:33:31;4.55;;;1.17;;
23260;SDS011;11799;47.740;-3.390;2024-02-16T10:35:57;9.20;;;1.25;;
23260;SDS011;11799;47.740;-3.390;2024-02-16T10:38:24;10.98;;;1.63;;
23260;SDS011;11799;47.740;-3.390;2024-02-16T10:40:52;3.95;;;0.90;;
23260;SDS011;11799;47.740;-3.390;2024-02-16T10:43:18;12.43;;;1.40;;
23260;SDS011;11799;47.740;-3.390;2024-02-16T10:45:46;3.95;;;0.88;;
23260;SDS011;11799;47.740;-3.390;2024-02-16T10:48:14;14.18;;;1.35;;
23260;SDS011;11799;47.740;-3.390;2024-02-16T10:50:40;7.65;;;1.33;;
23260;SDS011;11799;47.740;-3.390;2024-02-16T10:53:09;3.53;;;1.30;;
23260;SDS011;11799;47.740;-3.390;2024-02-16T10:55:41;12.07;;;1.95;;
23260;SDS011;11799;47.740;-3.390;2024-02-16T10:58:09;1.73;;;0.98;;
23260;SDS011;11799;47.740;-3.390;2024-02-16T11:00:47;8.82;;;1.00;;
23260;SDS011;11799;47.740;-3.390;2024-02-16T11:03:15;5.28;;;0.88;;
23260;SDS011;11799;47.740;-3.390;2024-02-16T11:05:42;3.72;;;1.38;;
23260;SDS011;11799;47.740;-3.390;2024-02-16T11:08:14;4.35;;;0.93;;
23260;SDS011;11799;47.740;-3.390;2024-02-16T11:10:53;6.57;;;1.15;;
23260;SDS011;11799;47.740;-3.390;2024-02-16T11:13:27;5.57;;;1.35;;
23260;SDS011;11799;47.740;-3.390;2024-02-16T11:15:57;4.38;;;0.93;;
23260;SDS011;11799;47.740;-3.390;2024-02-16T11:18:28;11.70;;;1.05;;
23260;SDS011;11799;47.740;-3.390;2024-02-16T11:20:55;2.83;;;1.40;;
23260;SDS011;11799;47.740;-3.390;2024-02-16T11:23:27;1.15;;;1.05;;
23260;SDS011;11799;47.740;-3.390;2024-02-16T11:25:54;8.95;;;0.90;;
23260;SDS011;11799;47.740;-3.390;2024-02-16T11:28:27;5.35;;;0.80;;
23260;SDS011;11799;47.740;-3.390;2024-02-16T11:30:54;3.63;;;1.05;;
23260;SDS011;11799;47.740;-3.390;2024-02-16T11:33:19;4.72;;;0.82;;
23260;SDS011;11799;47.740;-3.390;2024-02-16T11:36:01;10.68;;;1.08;;
23260;SDS011;11799;47.740;-3.390;2024-02-16T11:38:34;9.25;;;1.10;;
23260;SDS011;11799;47.740;-3.390;2024-02-16T11:41:04;9.40;;;1.80;;
23260;SDS011;11799;47.740;-3.390;2024-02-16T11:43:30;14.10;;;1.50;;
23260;SDS011;11799;47.740;-3.390;2024-02-16T11:45:59;3.70;;;1.08;;
23260;SDS011;11799;47.740;-3.390;2024-02-16T11:48:35;12.88;;;1.38;;
23260;SDS011;11799;47.740;-3.390;2024-02-16T11:51:02;3.55;;;1.27;;
23260;SDS011;11799;47.740;-3.390;2024-02-16T11:53:31;3.83;;;0.95;;
23260;SDS011;11799;47.740;-3.390;2024-02-16T11:55:58;2.85;;;1.20;;
23260;SDS011;11799;47.740;-3.390;2024-02-16T11:58:25;8.07;;;1.58;;
23260;SDS011;11799;47.740;-3.390;2024-02-16T12:00:51;5.70;;;1.23;;
23260;SDS011;11799;47.740;-3.390;2024-02-16T12:03:18;5.22;;;0.85;;
23260;SDS011;11799;47.740;-3.390;2024-02-16T12:05:53;3.22;;;0.93;;
23260;SDS011;11799;47.740;-3.390;2024-02-16T12:08:20;7.82;;;1.45;;
23260;SDS011;11799;47.740;-3.390;2024-02-16T12:10:50;6.72;;;1.70;;
23260;SDS011;11799;47.740;-3.390;2024-02-16T12:13:19;3.42;;;1.00;;
23260;SDS011;11799;47.740;-3.390;2024-02-16T12:15:45;14.05;;;1.38;;
23260;SDS011;11799;47.740;-3.390;2024-02-16T12:18:25;3.28;;;1.90;;
23260;SDS011;11799;47.740;-3.390;2024-02-16T12:21:05;2.35;;;0.93;;
23260;SDS011;11799;47.740;-3.390;2024-02-16T12:23:35;5.50;;;1.55;;
23260;SDS011;11799;47.740;-3.390;2024-02-16T12:26:01;5.15;;;1.40;;
23260;SDS011;11799;47.740;-3.390;2024-02-16T12:28:31;2.47;;;0.98;;
23260;SDS011;11799;47.740;-3.390;2024-02-16T12:31:01;8.15;;;0.90;;
23260;SDS011;11799;47.740;-3.390;2024-02-16T12:33:27;5.28;;;1.20;;
23260;SDS011;11799;47.740;-3.390;2024-02-16T12:35:53;8.65;;;1.52;;
23260;SDS011;11799;47.740;-3.390;2024-02-16T12:38:19;4.10;;;1.00;;
23260;SDS011;11799;47.740;-3.390;2024-02-16T12:40:45;1.40;;;1.05;;
23260;SDS011;11799;47.740;-3.390;2024-02-16T12:43:14;8.90;;;1.08;;
23260;SDS011;11799;47.740;-3.390;2024-02-16T12:45:42;5.20;;;1.27;;
23260;SDS011;11799;47.740;-3.390;2024-02-16T12:48:08;5.47;;;1.42;;
23260;SDS011;11799;47.740;-3.390;2024-02-16T12:50:39;3.35;;;1.00;;
23260;SDS011;11799;47.740;-3.390;2024-02-16T12:53:07;5.68;;;1.02;;
23260;SDS011;11799;47.740;-3.390;2024-02-16T12:55:33;6.38;;;1.75;;
23260;SDS011;11799;47.740;-3.390;2024-02-16T12:57:58;8.40;;;1.05;;
23260;SDS011;11799;47.740;-3.390;2024-02-16T13:00:24;0.82;;;0.80;;
23260;SDS011;11799;47.740;-3.390;2024-02-16T13:02:50;7.65;;;1.00;;
23260;SDS011;11799;47.740;-3.390;2024-02-16T13:05:15;4.25;;;1.23;;
23260;SDS011;11799;47.740;-3.390;2024-02-16T13:07:41;10.52;;;1.92;;
23260;SDS011;11799;47.740;-3.390;2024-02-16T13:10:07;5.57;;;1.35;;
23260;SDS011;11799;47.740;-3.390;2024-02-16T13:12:33;5.35;;;1.20;;
23260;SDS011;11799;47.740;-3.390;2024-02-16T13:15:00;3.67;;;1.20;;
23260;SDS011;11799;47.740;-3.390;2024-02-16T13:17:27;9.45;;;0.95;;
23260;SDS011;11799;47.740;-3.390;2024-02-16T13:19:52;8.27;;;1.15;;
23260;SDS011;11799;47.740;-3.390;2024-02-16T13:22:18;7.25;;;1.23;;
23260;SDS011;11799;47.740;-3.390;2024-02-16T13:24:43;12.07;;;1.98;;
23260;SDS011;11799;47.740;-3.390;2024-02-16T13:27:09;1.48;;;0.95;;
23260;SDS011;11799;47.740;-3.390;2024-02-16T13:29:35;0.70;;;0.70;;
23260;SDS011;11799;47.740;-3.390;2024-02-16T13:32:01;1.92;;;0.82;;
23260;SDS011;11799;47.740;-3.390;2024-02-16T13:34:26;3.25;;;1.38;;
23260;SDS011;11799;47.740;-3.390;2024-02-16T13:36:52;5.05;;;1.05;;
23260;SDS011;11799;47.740;-3.390;2024-02-16T13:39:18;2.97;;;1.13;;
23260;SDS011;11799;47.740;-3.390;2024-02-16T13:41:45;2.40;;;1.13;;
23260;SDS011;11799;47.740;-3.390;2024-02-16T13:44:12;8.13;;;0.60;;
23260;SDS011;11799;47.740;-3.390;2024-02-16T13:46:38;5.43;;;1.08;;
23260;SDS011;11799;47.740;-3.390;2024-02-16T13:49:04;2.45;;;1.00;;
23260;SDS011;11799;47.740;-3.390;2024-02-16T13:51:29;1.27;;;0.77;;
23260;SDS011;11799;47.740;-3.390;2024-02-16T13:53:55;3.25;;;1.02;;
23260;SDS011;11799;47.740;-3.390;2024-02-16T13:56:20;1.65;;;1.15;;
23260;SDS011;11799;47.740;-3.390;2024-02-16T13:58:46;8.13;;;1.13;;
23260;SDS011;11799;47.740;-3.390;2024-02-16T14:01:12;0.50;;;0.50;;
23260;SDS011;11799;47.740;-3.390;2024-02-16T14:03:38;7.72;;;0.65;;
23260;SDS011;11799;47.740;-3.390;2024-02-16T14:06:05;4.32;;;1.10;;
23260;SDS011;11799;47.740;-3.390;2024-02-16T14:08:31;2.38;;;1.15;;
23260;SDS011;11799;47.740;-3.390;2024-02-16T14:10:57;0.63;;;0.63;;
23260;SDS011;11799;47.740;-3.390;2024-02-16T14:13:22;10.95;;;0.82;;
23260;SDS011;11799;47.740;-3.390;2024-02-16T14:15:50;3.75;;;0.60;;
23260;SDS011;11799;47.740;-3.390;2024-02-16T14:18:15;1.40;;;0.63;;
23260;SDS011;11799;47.740;-3.390;2024-02-16T14:20:41;0.93;;;0.82;;
23260;SDS011;11799;47.740;-3.390;2024-02-16T14:23:06;2.92;;;1.13;;
23260;SDS011;11799;47.740;-3.390;2024-02-16T14:25:34;16.27;;;1.55;;
23260;SDS011;11799;47.740;-3.390;2024-02-16T14:28:02;5.50;;;0.80;;
23260;SDS011;11799;47.740;-3.390;2024-02-16T14:30:28;1.98;;;0.90;;
23260;SDS011;11799;47.740;-3.390;2024-02-16T14:32:54;8.23;;;1.27;;